sensor_id;sensor_type;location;lat;lon;timestamp;temperature;humidity
27376;DHT22;14844;51.302;6.354;2023-07-13T00:01:12;14.60;99.90
27376;DHT22;14844;51.302;6.354;2023-07-13T00:03:37;14.50;99.90
27376;DHT22;14844;51.302;6.354;2023-07-13T00:06:03;14.60;99.90
27376;DHT22;14844;51.302;6.354;2023-07-13T00:08:30;14.50;99.90
27376;DHT22;14844;51.302;6.354;2023-07-13T00:10:55;14.60;99.90
27376;DHT22;14844;51.302;6.354;2023-07-13T00:13:20;14.60;99.90
27376;DHT22;14844;51.302;6.354;2023-07-13T00:15:46;14.60;99.90
27376;DHT22;14844;51.302;6.354;2023-07-13T00:18:11;14.60;99.90
27376;DHT22;14844;51.302;6.354;2023-07-13T00:20:37;14.60;99.90
27376;DHT22;14844;51.302;6.354;2023-07-13T00:23:03;14.60;99.90
27376;DHT22;14844;51.302;6.354;2023-07-13T00:25:28;14.60;99.90
27376;DHT22;14844;51.302;6.354;2023-07-13T00:27:54;14.60;99.90
27376;DHT22;14844;51.302;6.354;2023-07-13T00:30:20;14.50;99.90
27376;DHT22;14844;51.302;6.354;2023-07-13T00:32:45;14.50;99.90
27376;DHT22;14844;51.302;6.354;2023-07-13T00:35:12;14.50;99.90
27376;DHT22;14844;51.302;6.354;2023-07-13T00:37:38;14.50;99.90
27376;DHT22;14844;51.302;6.354;2023-07-13T00:40:04;14.50;99.90
27376;DHT22;14844;51.302;6.354;2023-07-13T00:42:30;14.50;99.90
27376;DHT22;14844;51.302;6.354;2023-07-13T00:45:00;14.50;99.90
27376;DHT22;14844;51.302;6.354;2023-07-13T00:47:26;14.40;99.90
27376;DHT22;14844;51.302;6.354;2023-07-13T00:49:51;14.40;99.90
27376;DHT22;14844;51.302;6.354;2023-07-13T00:52:17;14.40;99.90
27376;DHT22;14844;51.302;6.354;2023-07-13T00:54:43;14.40;99.90
27376;DHT22;14844;51.302;6.354;2023-07-13T00:57:11;14.40;99.90
27376;DHT22;14844;51.302;6.354;2023-07-13T00:59:38;14.40;99.90
27376;DHT22;14844;51.302;6.354;2023-07-13T01:02:04;14.30;99.90
27376;DHT22;14844;51.302;6.354;2023-07-13T01:04:30;14.30;99.90
27376;DHT22;14844;51.302;6.354;2023-07-13T01:06:56;14.30;99.90
27376;DHT22;14844;51.302;6.354;2023-07-13T01:09:22;14.30;99.90
27376;DHT22;14844;51.302;6.354;2023-07-13T01:11:47;14.20;99.90
27376;DHT22;14844;51.302;6.354;2023-07-13T01:14:13;14.20;99.90
27376;DHT22;14844;51.302;6.354;2023-07-13T01:16:40;14.20;99.90
27376;DHT22;14844;51.302;6.354;2023-07-13T01:19:12;14.20;99.90
27376;DHT22;14844;51.302;6.354;2023-07-13T01:21:40;14.20;99.90
27376;DHT22;14844;51.302;6.354;2023-07-13T01:24:08;14.10;99.90
27376;DHT22;14844;51.302;6.354;2023-07-13T01:26:34;14.00;99.90
27376;DHT22;14844;51.302;6.354;2023-07-13T01:28:59;13.90;99.90
27376;DHT22;14844;51.302;6.354;2023-07-13T01:31:24;13.90;99.90
27376;DHT22;14844;51.302;6.354;2023-07-13T01:33:50;13.80;99.90
27376;DHT22;14844;51.302;6.354;2023-07-13T01:36:15;13.70;99.90
27376;DHT22;14844;51.302;6.354;2023-07-13T01:38:41;13.70;99.90
27376;DHT22;14844;51.302;6.354;2023-07-13T01:41:06;13.70;99.90
27376;DHT22;14844;51.302;6.354;2023-07-13T01:43:32;13.80;99.90
27376;DHT22;14844;51.302;6.354;2023-07-13T01:45:58;13.90;99.90
27376;DHT22;14844;51.302;6.354;2023-07-13T01:48:23;13.80;99.90
27376;DHT22;14844;51.302;6.354;2023-07-13T01:50:49;13.90;99.90
27376;DHT22;14844;51.302;6.354;2023-07-13T01:53:15;13.80;99.90
27376;DHT22;14844;51.302;6.354;2023-07-13T01:55:41;13.80;99.90
27376;DHT22;14844;51.302;6.354;2023-07-13T01:58:06;13.80;99.90
27376;DHT22;14844;51.302;6.354;2023-07-13T02:00:32;13.70;99.90
27376;DHT22;14844;51.302;6.354;2023-07-13T02:02:57;13.70;99.90
27376;DHT22;14844;51.302;6.354;2023-07-13T02:05:23;13.60;99.90
27376;DHT22;14844;51.302;6.354;2023-07-13T02:07:48;13.60;99.90
27376;DHT22;14844;51.302;6.354;2023-07-13T02:10:14;13.60;99.90
27376;DHT22;14844;51.302;6.354;2023-07-13T02:12:40;13.60;99.90
27376;DHT22;14844;51.302;6.354;2023-07-13T02:15:06;13.60;99.90
27376;DHT22;14844;51.302;6.354;2023-07-13T02:17:31;13.60;99.90
27376;DHT22;14844;51.302;6.354;2023-07-13T02:19:57;13.60;99.90
27376;DHT22;14844;51.302;6.354;2023-07-13T02:22:23;13.60;99.90
27376;DHT22;14844;51.302;6.354;2023-07-13T02:24:48;13.60;99.90
27376;DHT22;14844;51.302;6.354;2023-07-13T02:27:14;13.60;99.90
27376;DHT22;14844;51.302;6.354;2023-07-13T02:29:39;13.60;99.90
27376;DHT22;14844;51.302;6.354;2023-07-13T02:32:05;13.60;99.90
27376;DHT22;14844;51.302;6.354;2023-07-13T02:34:30;13.60;99.90
27376;DHT22;14844;51.302;6.354;2023-07-13T02:36:56;13.60;99.90
27376;DHT22;14844;51.302;6.354;2023-07-13T02:39:21;13.60;99.90
27376;DHT22;14844;51.302;6.354;2023-07-13T02:41:47;13.60;99.90
27376;DHT22;14844;51.302;6.354;2023-07-13T02:44:13;13.60;99.90
27376;DHT22;14844;51.302;6.354;2023-07-13T02:46:39;13.70;99.90
27376;DHT22;14844;51.302;6.354;2023-07-13T02:49:04;13.60;99.90
27376;DHT22;14844;51.302;6.354;2023-07-13T02:51:30;13.50;99.90
27376;DHT22;14844;51.302;6.354;2023-07-13T02:53:58;13.60;99.90
27376;DHT22;14844;51.302;6.354;2023-07-13T02:56:25;13.60;99.90
27376;DHT22;14844;51.302;6.354;2023-07-13T02:58:51;13.60;99.90
27376;DHT22;14844;51.302;6.354;2023-07-13T03:01:16;13.60;99.90
27376;DHT22;14844;51.302;6.354;2023-07-13T03:03:46;13.60;99.90
27376;DHT22;14844;51.302;6.354;2023-07-13T03:06:12;13.60;99.90
27376;DHT22;14844;51.302;6.354;2023-07-13T03:08:37;13.70;99.90
27376;DHT22;14844;51.302;6.354;2023-07-13T03:11:07;13.70;99.90
27376;DHT22;14844;51.302;6.354;2023-07-13T03:13:33;13.70;99.90
27376;DHT22;14844;51.302;6.354;2023-07-13T03:16:00;13.60;99.90
27376;DHT22;14844;51.302;6.354;2023-07-13T03:18:26;13.60;99.90
27376;DHT22;14844;51.302;6.354;2023-07-13T03:20:52;13.60;99.90
27376;DHT22;14844;51.302;6.354;2023-07-13T03:23:18;13.60;99.90
27376;DHT22;14844;51.302;6.354;2023-07-13T03:25:44;13.60;99.90
27376;DHT22;14844;51.302;6.354;2023-07-13T03:28:10;13.50;99.90
27376;DHT22;14844;51.302;6.354;2023-07-13T03:30:36;13.50;99.90
27376;DHT22;14844;51.302;6.354;2023-07-13T03:33:01;13.60;99.90
27376;DHT22;14844;51.302;6.354;2023-07-13T03:35:27;13.60;99.90
27376;DHT22;14844;51.302;6.354;2023-07-13T03:37:52;13.50;99.90
27376;DHT22;14844;51.302;6.354;2023-07-13T03:40:18;13.50;99.90
27376;DHT22;14844;51.302;6.354;2023-07-13T03:42:43;13.60;99.90
27376;DHT22;14844;51.302;6.354;2023-07-13T03:45:09;13.60;99.90
27376;DHT22;14844;51.302;6.354;2023-07-13T03:47:34;13.60;99.90
27376;DHT22;14844;51.302;6.354;2023-07-13T03:49:59;13.60;99.90
27376;DHT22;14844;51.302;6.354;2023-07-13T03:52:25;13.60;99.90
27376;DHT22;14844;51.302;6.354;2023-07-13T03:54:50;13.60;99.90
27376;DHT22;14844;51.302;6.354;2023-07-13T03:57:16;13.60;99.90
27376;DHT22;14844;51.302;6.354;2023-07-13T03:59:41;13.80;99.90
27376;DHT22;14844;51.302;6.354;2023-07-13T04:02:07;13.80;99.90
27376;DHT22;14844;51.302;6.354;2023-07-13T04:04:32;13.90;99.90
27376;DHT22;14844;51.302;6.354;2023-07-13T04:06:58;13.90;99.90
27376;DHT22;14844;51.302;6.354;2023-07-13T04:09:24;14.00;99.90
27376;DHT22;14844;51.302;6.354;2023-07-13T04:11:49;14.00;99.90
27376;DHT22;14844;51.302;6.354;2023-07-13T04:14:15;14.20;99.90
27376;DHT22;14844;51.302;6.354;2023-07-13T04:16:41;14.40;99.90
27376;DHT22;14844;51.302;6.354;2023-07-13T04:19:07;14.50;99.90
27376;DHT22;14844;51.302;6.354;2023-07-13T04:21:32;14.70;99.90
27376;DHT22;14844;51.302;6.354;2023-07-13T04:23:58;14.80;99.90
27376;DHT22;14844;51.302;6.354;2023-07-13T04:26:24;15.10;99.90
27376;DHT22;14844;51.302;6.354;2023-07-13T04:28:50;15.00;99.90
27376;DHT22;14844;51.302;6.354;2023-07-13T04:31:16;15.00;99.90
27376;DHT22;14844;51.302;6.354;2023-07-13T04:33:41;15.00;99.90
27376;DHT22;14844;51.302;6.354;2023-07-13T04:36:08;14.90;99.90
27376;DHT22;14844;51.302;6.354;2023-07-13T04:38:34;14.80;99.90
27376;DHT22;14844;51.302;6.354;2023-07-13T04:41:01;14.90;99.90
27376;DHT22;14844;51.302;6.354;2023-07-13T04:43:26;14.90;99.90
27376;DHT22;14844;51.302;6.354;2023-07-13T04:45:52;15.00;99.90
27376;DHT22;14844;51.302;6.354;2023-07-13T04:48:18;15.00;99.90
27376;DHT22;14844;51.302;6.354;2023-07-13T04:50:43;14.90;99.90
27376;DHT22;14844;51.302;6.354;2023-07-13T04:53:09;15.00;99.90
27376;DHT22;14844;51.302;6.354;2023-07-13T04:55:35;15.00;99.90
27376;DHT22;14844;51.302;6.354;2023-07-13T04:58:01;15.10;99.90
27376;DHT22;14844;51.302;6.354;2023-07-13T05:00:28;15.10;99.90
27376;DHT22;14844;51.302;6.354;2023-07-13T05:02:57;15.10;99.90
27376;DHT22;14844;51.302;6.354;2023-07-13T05:05:23;15.20;99.90
27376;DHT22;14844;51.302;6.354;2023-07-13T05:07:49;15.30;99.90
27376;DHT22;14844;51.302;6.354;2023-07-13T05:10:14;15.40;99.90
27376;DHT22;14844;51.302;6.354;2023-07-13T05:12:40;15.40;99.90
27376;DHT22;14844;51.302;6.354;2023-07-13T05:15:06;15.50;99.90
27376;DHT22;14844;51.302;6.354;2023-07-13T05:17:32;15.50;99.90
27376;DHT22;14844;51.302;6.354;2023-07-13T05:19:57;15.60;99.90
27376;DHT22;14844;51.302;6.354;2023-07-13T05:22:23;15.60;99.90
27376;DHT22;14844;51.302;6.354;2023-07-13T05:24:48;15.70;99.90
27376;DHT22;14844;51.302;6.354;2023-07-13T05:27:14;15.80;99.90
27376;DHT22;14844;51.302;6.354;2023-07-13T05:29:39;15.80;99.90
27376;DHT22;14844;51.302;6.354;2023-07-13T05:32:04;15.90;99.90
27376;DHT22;14844;51.302;6.354;2023-07-13T05:34:30;15.90;99.90
27376;DHT22;14844;51.302;6.354;2023-07-13T05:36:56;16.00;99.90
27376;DHT22;14844;51.302;6.354;2023-07-13T05:39:21;16.10;99.90
27376;DHT22;14844;51.302;6.354;2023-07-13T05:41:47;16.20;99.90
27376;DHT22;14844;51.302;6.354;2023-07-13T05:44:12;16.30;99.90
27376;DHT22;14844;51.302;6.354;2023-07-13T05:46:37;16.30;99.90
27376;DHT22;14844;51.302;6.354;2023-07-13T05:49:03;16.40;99.90
27376;DHT22;14844;51.302;6.354;2023-07-13T05:51:29;16.50;99.90
27376;DHT22;14844;51.302;6.354;2023-07-13T05:53:54;16.60;99.90
27376;DHT22;14844;51.302;6.354;2023-07-13T05:56:20;16.80;99.90
27376;DHT22;14844;51.302;6.354;2023-07-13T05:58:45;17.10;99.90
27376;DHT22;14844;51.302;6.354;2023-07-13T06:01:12;17.20;99.90
27376;DHT22;14844;51.302;6.354;2023-07-13T06:03:37;17.30;99.90
27376;DHT22;14844;51.302;6.354;2023-07-13T06:06:07;17.30;99.90
27376;DHT22;14844;51.302;6.354;2023-07-13T06:08:32;17.50;99.90
27376;DHT22;14844;51.302;6.354;2023-07-13T06:11:31;18.00;99.90
27376;DHT22;14844;51.302;6.354;2023-07-13T06:13:50;18.10;99.90
27376;DHT22;14844;51.302;6.354;2023-07-13T06:16:16;18.10;99.90
27376;DHT22;14844;51.302;6.354;2023-07-13T06:18:41;17.90;99.90
27376;DHT22;14844;51.302;6.354;2023-07-13T06:21:11;17.60;99.90
27376;DHT22;14844;51.302;6.354;2023-07-13T06:23:37;17.70;99.90
27376;DHT22;14844;51.302;6.354;2023-07-13T06:26:03;17.70;99.90
27376;DHT22;14844;51.302;6.354;2023-07-13T06:28:29;17.50;99.90
27376;DHT22;14844;51.302;6.354;2023-07-13T06:30:55;17.50;99.90
27376;DHT22;14844;51.302;6.354;2023-07-13T06:33:21;17.40;99.90
27376;DHT22;14844;51.302;6.354;2023-07-13T06:35:46;17.70;99.90
27376;DHT22;14844;51.302;6.354;2023-07-13T06:38:11;17.80;99.90
27376;DHT22;14844;51.302;6.354;2023-07-13T06:40:37;17.80;99.90
27376;DHT22;14844;51.302;6.354;2023-07-13T06:43:02;18.00;99.90
27376;DHT22;14844;51.302;6.354;2023-07-13T06:45:28;18.10;99.90
27376;DHT22;14844;51.302;6.354;2023-07-13T06:47:53;18.20;99.90
27376;DHT22;14844;51.302;6.354;2023-07-13T06:50:19;18.30;99.90
27376;DHT22;14844;51.302;6.354;2023-07-13T06:52:44;18.60;99.90
27376;DHT22;14844;51.302;6.354;2023-07-13T06:55:10;18.50;99.90
27376;DHT22;14844;51.302;6.354;2023-07-13T06:57:35;18.60;99.90
27376;DHT22;14844;51.302;6.354;2023-07-13T07:00:00;18.70;99.90
27376;DHT22;14844;51.302;6.354;2023-07-13T07:02:26;18.60;99.90
27376;DHT22;14844;51.302;6.354;2023-07-13T07:04:51;18.60;99.90
27376;DHT22;14844;51.302;6.354;2023-07-13T07:07:17;18.60;99.90
27376;DHT22;14844;51.302;6.354;2023-07-13T07:09:42;18.80;99.90
27376;DHT22;14844;51.302;6.354;2023-07-13T07:12:08;18.90;99.90
27376;DHT22;14844;51.302;6.354;2023-07-13T07:14:33;19.50;99.90
27376;DHT22;14844;51.302;6.354;2023-07-13T07:16:59;19.60;99.90
27376;DHT22;14844;51.302;6.354;2023-07-13T07:19:25;19.60;99.90
27376;DHT22;14844;51.302;6.354;2023-07-13T07:21:50;19.60;99.90
27376;DHT22;14844;51.302;6.354;2023-07-13T07:24:16;19.70;99.90
27376;DHT22;14844;51.302;6.354;2023-07-13T07:26:41;19.20;99.90
27376;DHT22;14844;51.302;6.354;2023-07-13T07:29:07;19.10;99.90
27376;DHT22;14844;51.302;6.354;2023-07-13T07:31:32;19.30;99.90
27376;DHT22;14844;51.302;6.354;2023-07-13T07:33:58;19.60;99.90
27376;DHT22;14844;51.302;6.354;2023-07-13T07:36:23;19.30;99.90
27376;DHT22;14844;51.302;6.354;2023-07-13T07:38:48;19.70;99.90
27376;DHT22;14844;51.302;6.354;2023-07-13T07:41:14;20.20;99.90
27376;DHT22;14844;51.302;6.354;2023-07-13T07:43:39;20.40;99.90
27376;DHT22;14844;51.302;6.354;2023-07-13T07:46:05;20.20;99.90
27376;DHT22;14844;51.302;6.354;2023-07-13T07:48:31;20.10;99.90
27376;DHT22;14844;51.302;6.354;2023-07-13T07:50:57;20.20;99.90
27376;DHT22;14844;51.302;6.354;2023-07-13T07:53:22;20.00;99.90
27376;DHT22;14844;51.302;6.354;2023-07-13T07:55:48;19.40;99.90
27376;DHT22;14844;51.302;6.354;2023-07-13T07:58:13;19.60;99.90
27376;DHT22;14844;51.302;6.354;2023-07-13T08:00:39;19.70;99.90
27376;DHT22;14844;51.302;6.354;2023-07-13T08:03:05;19.70;99.90
27376;DHT22;14844;51.302;6.354;2023-07-13T08:05:31;19.80;99.90
27376;DHT22;14844;51.302;6.354;2023-07-13T08:07:56;19.80;99.90
27376;DHT22;14844;51.302;6.354;2023-07-13T08:10:22;19.60;99.90
27376;DHT22;14844;51.302;6.354;2023-07-13T08:12:47;19.60;99.90
27376;DHT22;14844;51.302;6.354;2023-07-13T08:15:14;19.40;99.90
27376;DHT22;14844;51.302;6.354;2023-07-13T08:17:40;19.30;99.90
27376;DHT22;14844;51.302;6.354;2023-07-13T08:20:06;19.40;99.90
27376;DHT22;14844;51.302;6.354;2023-07-13T08:22:31;19.40;99.90
27376;DHT22;14844;51.302;6.354;2023-07-13T08:24:58;19.60;99.90
27376;DHT22;14844;51.302;6.354;2023-07-13T08:27:24;19.40;99.90
27376;DHT22;14844;51.302;6.354;2023-07-13T08:29:50;19.40;99.90
27376;DHT22;14844;51.302;6.354;2023-07-13T08:32:16;19.40;99.90
27376;DHT22;14844;51.302;6.354;2023-07-13T08:34:42;19.40;99.90
27376;DHT22;14844;51.302;6.354;2023-07-13T08:37:08;19.60;99.90
27376;DHT22;14844;51.302;6.354;2023-07-13T08:39:34;19.80;99.90
27376;DHT22;14844;51.302;6.354;2023-07-13T08:42:01;19.90;99.90
27376;DHT22;14844;51.302;6.354;2023-07-13T08:44:30;20.40;99.90
27376;DHT22;14844;51.302;6.354;2023-07-13T08:46:59;20.50;99.90
27376;DHT22;14844;51.302;6.354;2023-07-13T08:49:24;20.40;99.90
27376;DHT22;14844;51.302;6.354;2023-07-13T08:51:56;20.20;99.90
27376;DHT22;14844;51.302;6.354;2023-07-13T08:54:28;20.20;99.90
27376;DHT22;14844;51.302;6.354;2023-07-13T08:56:56;20.70;99.90
27376;DHT22;14844;51.302;6.354;2023-07-13T08:59:26;20.90;99.60
27376;DHT22;14844;51.302;6.354;2023-07-13T09:04:39;21.00;99.00
27376;DHT22;14844;51.302;6.354;2023-07-13T09:10:00;21.70;98.60
27376;DHT22;14844;51.302;6.354;2023-07-13T09:12:32;21.30;97.70
27376;DHT22;14844;51.302;6.354;2023-07-13T09:15:01;21.00;98.30
27376;DHT22;14844;51.302;6.354;2023-07-13T09:17:39;20.90;98.60
27376;DHT22;14844;51.302;6.354;2023-07-13T09:20:19;20.80;98.70
27376;DHT22;14844;51.302;6.354;2023-07-13T09:22:47;21.00;98.70
27376;DHT22;14844;51.302;6.354;2023-07-13T09:25:34;21.50;98.40
27376;DHT22;14844;51.302;6.354;2023-07-13T09:28:02;21.50;97.70
27376;DHT22;14844;51.302;6.354;2023-07-13T09:33:09;21.60;97.80
27376;DHT22;14844;51.302;6.354;2023-07-13T09:35:34;21.60;97.20
27376;DHT22;14844;51.302;6.354;2023-07-13T09:38:14;21.50;97.50
27376;DHT22;14844;51.302;6.354;2023-07-13T09:43:08;22.00;96.70
27376;DHT22;14844;51.302;6.354;2023-07-13T09:45:36;22.30;96.90
27376;DHT22;14844;51.302;6.354;2023-07-13T09:48:06;22.40;96.40
27376;DHT22;14844;51.302;6.354;2023-07-13T09:50:33;22.00;95.40
27376;DHT22;14844;51.302;6.354;2023-07-13T09:53:00;21.90;95.20
27376;DHT22;14844;51.302;6.354;2023-07-13T09:55:36;22.00;96.50
27376;DHT22;14844;51.302;6.354;2023-07-13T09:58:12;21.80;94.90
27376;DHT22;14844;51.302;6.354;2023-07-13T10:00:39;21.90;96.00
27376;DHT22;14844;51.302;6.354;2023-07-13T10:03:09;22.00;95.50
27376;DHT22;14844;51.302;6.354;2023-07-13T10:05:40;22.30;95.90
27376;DHT22;14844;51.302;6.354;2023-07-13T10:08:09;22.60;95.50
27376;DHT22;14844;51.302;6.354;2023-07-13T10:10:40;23.10;94.90
27376;DHT22;14844;51.302;6.354;2023-07-13T10:13:08;23.00;93.70
27376;DHT22;14844;51.302;6.354;2023-07-13T10:15:44;23.40;93.80
27376;DHT22;14844;51.302;6.354;2023-07-13T10:18:10;23.50;93.10
27376;DHT22;14844;51.302;6.354;2023-07-13T10:20:35;23.50;92.70
27376;DHT22;14844;51.302;6.354;2023-07-13T10:23:05;23.30;92.60
27376;DHT22;14844;51.302;6.354;2023-07-13T10:25:32;22.90;92.90
27376;DHT22;14844;51.302;6.354;2023-07-13T10:28:33;22.50;93.90
27376;DHT22;14844;51.302;6.354;2023-07-13T10:30:50;22.60;93.90
27376;DHT22;14844;51.302;6.354;2023-07-13T10:33:16;22.80;93.20
27376;DHT22;14844;51.302;6.354;2023-07-13T10:35:42;23.40;93.20
27376;DHT22;14844;51.302;6.354;2023-07-13T10:38:13;23.50;91.90
27376;DHT22;14844;51.302;6.354;2023-07-13T10:40:40;22.90;91.20
27376;DHT22;14844;51.302;6.354;2023-07-13T10:43:15;22.70;91.70
27376;DHT22;14844;51.302;6.354;2023-07-13T10:45:43;22.70;91.90
27376;DHT22;14844;51.302;6.354;2023-07-13T10:48:11;23.00;92.90
27376;DHT22;14844;51.302;6.354;2023-07-13T10:50:38;23.70;92.30
27376;DHT22;14844;51.302;6.354;2023-07-13T10:53:22;23.80;91.90
27376;DHT22;14844;51.302;6.354;2023-07-13T11:03:36;24.80;88.90
27376;DHT22;14844;51.302;6.354;2023-07-13T11:10:56;24.00;90.50
27376;DHT22;14844;51.302;6.354;2023-07-13T11:13:38;23.70;90.80
27376;DHT22;14844;51.302;6.354;2023-07-13T11:18:46;23.20;90.20
27376;DHT22;14844;51.302;6.354;2023-07-13T11:21:17;23.20;90.30
27376;DHT22;14844;51.302;6.354;2023-07-13T11:23:43;23.50;90.70
27376;DHT22;14844;51.302;6.354;2023-07-13T11:28:56;23.70;88.30
27376;DHT22;14844;51.302;6.354;2023-07-13T11:31:22;23.80;89.10
27376;DHT22;14844;51.302;6.354;2023-07-13T11:33:52;23.70;89.10
27376;DHT22;14844;51.302;6.354;2023-07-13T11:36:19;23.80;89.60
27376;DHT22;14844;51.302;6.354;2023-07-13T11:41:35;23.90;87.80
27376;DHT22;14844;51.302;6.354;2023-07-13T11:44:06;23.90;86.90
27376;DHT22;14844;51.302;6.354;2023-07-13T11:46:32;23.90;86.90
27376;DHT22;14844;51.302;6.354;2023-07-13T11:48:58;23.70;83.30
27376;DHT22;14844;51.302;6.354;2023-07-13T11:51:25;23.70;85.80
27376;DHT22;14844;51.302;6.354;2023-07-13T11:53:53;23.70;85.30
27376;DHT22;14844;51.302;6.354;2023-07-13T11:56:19;24.40;87.10
27376;DHT22;14844;51.302;6.354;2023-07-13T11:58:48;24.30;84.30
27376;DHT22;14844;51.302;6.354;2023-07-13T12:01:16;24.00;83.10
27376;DHT22;14844;51.302;6.354;2023-07-13T12:03:43;24.20;84.10
27376;DHT22;14844;51.302;6.354;2023-07-13T12:08:49;24.50;85.20
27376;DHT22;14844;51.302;6.354;2023-07-13T12:11:15;24.70;83.70
27376;DHT22;14844;51.302;6.354;2023-07-13T12:13:43;24.40;84.10
27376;DHT22;14844;51.302;6.354;2023-07-13T12:16:14;24.10;85.30
27376;DHT22;14844;51.302;6.354;2023-07-13T12:18:41;23.50;86.20
27376;DHT22;14844;51.302;6.354;2023-07-13T12:21:10;23.60;86.70
27376;DHT22;14844;51.302;6.354;2023-07-13T12:23:38;23.60;85.00
27376;DHT22;14844;51.302;6.354;2023-07-13T12:26:04;24.00;84.90
27376;DHT22;14844;51.302;6.354;2023-07-13T12:30:57;23.70;83.80
27376;DHT22;14844;51.302;6.354;2023-07-13T12:33:23;23.80;84.10
27376;DHT22;14844;51.302;6.354;2023-07-13T12:35:51;24.10;84.50
27376;DHT22;14844;51.302;6.354;2023-07-13T12:38:20;23.90;85.20
27376;DHT22;14844;51.302;6.354;2023-07-13T12:40:49;23.70;85.00
27376;DHT22;14844;51.302;6.354;2023-07-13T12:43:15;23.50;82.50
27376;DHT22;14844;51.302;6.354;2023-07-13T12:48:25;23.70;83.80
27376;DHT22;14844;51.302;6.354;2023-07-13T12:50:51;23.80;83.20
27376;DHT22;14844;51.302;6.354;2023-07-13T12:53:22;23.80;83.10
27376;DHT22;14844;51.302;6.354;2023-07-13T12:55:55;23.50;83.20
27376;DHT22;14844;51.302;6.354;2023-07-13T12:58:25;23.50;83.40
27376;DHT22;14844;51.302;6.354;2023-07-13T13:00:53;23.80;83.70
27376;DHT22;14844;51.302;6.354;2023-07-13T13:03:22;24.00;84.10
27376;DHT22;14844;51.302;6.354;2023-07-13T13:05:48;24.00;82.80
27376;DHT22;14844;51.302;6.354;2023-07-13T13:08:14;23.90;83.40
27376;DHT22;14844;51.302;6.354;2023-07-13T13:10:39;23.60;84.70
27376;DHT22;14844;51.302;6.354;2023-07-13T13:13:05;23.10;85.70
27376;DHT22;14844;51.302;6.354;2023-07-13T13:15:30;23.30;87.00
27376;DHT22;14844;51.302;6.354;2023-07-13T13:17:56;23.80;85.80
27376;DHT22;14844;51.302;6.354;2023-07-13T13:20:24;23.90;83.90
27376;DHT22;14844;51.302;6.354;2023-07-13T13:22:51;24.10;84.20
27376;DHT22;14844;51.302;6.354;2023-07-13T13:25:16;24.10;82.00
27376;DHT22;14844;51.302;6.354;2023-07-13T13:27:43;24.30;82.70
27376;DHT22;14844;51.302;6.354;2023-07-13T13:30:10;24.30;83.70
27376;DHT22;14844;51.302;6.354;2023-07-13T13:32:41;24.30;82.90
27376;DHT22;14844;51.302;6.354;2023-07-13T13:35:14;24.20;83.20
27376;DHT22;14844;51.302;6.354;2023-07-13T13:37:39;24.10;84.50
27376;DHT22;14844;51.302;6.354;2023-07-13T13:42:41;24.10;85.20
27376;DHT22;14844;51.302;6.354;2023-07-13T13:45:08;24.30;85.20
27376;DHT22;14844;51.302;6.354;2023-07-13T13:47:34;24.50;81.90
27376;DHT22;14844;51.302;6.354;2023-07-13T13:50:01;24.30;77.70
27376;DHT22;14844;51.302;6.354;2023-07-13T13:52:27;24.00;80.60
27376;DHT22;14844;51.302;6.354;2023-07-13T13:54:52;23.70;80.00
27376;DHT22;14844;51.302;6.354;2023-07-13T13:57:22;23.90;81.60
27376;DHT22;14844;51.302;6.354;2023-07-13T13:59:49;24.10;82.40
27376;DHT22;14844;51.302;6.354;2023-07-13T14:02:22;24.20;81.90
27376;DHT22;14844;51.302;6.354;2023-07-13T14:04:55;24.20;83.10
27376;DHT22;14844;51.302;6.354;2023-07-13T14:07:21;24.10;81.80
27376;DHT22;14844;51.302;6.354;2023-07-13T14:09:47;23.60;82.20
27376;DHT22;14844;51.302;6.354;2023-07-13T14:12:12;23.70;82.40
27376;DHT22;14844;51.302;6.354;2023-07-13T14:14:38;23.50;83.60
27376;DHT22;14844;51.302;6.354;2023-07-13T14:17:04;23.40;84.50
27376;DHT22;14844;51.302;6.354;2023-07-13T14:19:29;23.60;82.20
27376;DHT22;14844;51.302;6.354;2023-07-13T14:21:55;23.90;83.10
27376;DHT22;14844;51.302;6.354;2023-07-13T14:24:20;24.10;80.50
27376;DHT22;14844;51.302;6.354;2023-07-13T14:26:46;24.00;82.00
27376;DHT22;14844;51.302;6.354;2023-07-13T14:29:16;23.70;83.30
27376;DHT22;14844;51.302;6.354;2023-07-13T14:31:43;23.10;83.90
27376;DHT22;14844;51.302;6.354;2023-07-13T14:34:11;22.30;86.60
27376;DHT22;14844;51.302;6.354;2023-07-13T14:36:41;22.00;88.90
27376;DHT22;14844;51.302;6.354;2023-07-13T14:39:12;21.90;90.00
27376;DHT22;14844;51.302;6.354;2023-07-13T14:41:38;21.80;89.70
27376;DHT22;14844;51.302;6.354;2023-07-13T14:44:08;21.40;90.00
27376;DHT22;14844;51.302;6.354;2023-07-13T14:46:35;21.30;89.40
27376;DHT22;14844;51.302;6.354;2023-07-13T14:49:02;21.30;90.50
27376;DHT22;14844;51.302;6.354;2023-07-13T14:51:29;21.20;91.40
27376;DHT22;14844;51.302;6.354;2023-07-13T14:53:54;20.70;92.10
27376;DHT22;14844;51.302;6.354;2023-07-13T14:56:20;20.50;93.30
27376;DHT22;14844;51.302;6.354;2023-07-13T14:58:45;20.30;94.00
27376;DHT22;14844;51.302;6.354;2023-07-13T15:01:12;20.20;94.00
27376;DHT22;14844;51.302;6.354;2023-07-13T15:03:39;20.00;94.10
27376;DHT22;14844;51.302;6.354;2023-07-13T15:06:09;19.90;94.70
27376;DHT22;14844;51.302;6.354;2023-07-13T15:08:35;19.90;94.90
27376;DHT22;14844;51.302;6.354;2023-07-13T15:11:00;19.80;95.70
27376;DHT22;14844;51.302;6.354;2023-07-13T15:13:26;19.80;96.00
27376;DHT22;14844;51.302;6.354;2023-07-13T15:15:51;19.80;96.30
27376;DHT22;14844;51.302;6.354;2023-07-13T15:18:21;19.70;96.70
27376;DHT22;14844;51.302;6.354;2023-07-13T15:20:47;19.60;96.90
27376;DHT22;14844;51.302;6.354;2023-07-13T15:23:14;19.60;96.90
27376;DHT22;14844;51.302;6.354;2023-07-13T15:25:40;19.60;97.10
27376;DHT22;14844;51.302;6.354;2023-07-13T15:28:06;19.70;97.10
27376;DHT22;14844;51.302;6.354;2023-07-13T15:30:37;19.70;96.80
27376;DHT22;14844;51.302;6.354;2023-07-13T15:33:14;19.80;96.90
27376;DHT22;14844;51.302;6.354;2023-07-13T15:35:42;19.90;96.40
27376;DHT22;14844;51.302;6.354;2023-07-13T15:38:14;20.10;95.90
27376;DHT22;14844;51.302;6.354;2023-07-13T15:40:41;20.20;95.70
27376;DHT22;14844;51.302;6.354;2023-07-13T15:43:10;20.50;95.00
27376;DHT22;14844;51.302;6.354;2023-07-13T15:45:36;20.60;94.70
27376;DHT22;14844;51.302;6.354;2023-07-13T15:48:02;20.60;94.70
27376;DHT22;14844;51.302;6.354;2023-07-13T15:50:29;20.50;94.00
27376;DHT22;14844;51.302;6.354;2023-07-13T15:53:05;20.70;93.90
27376;DHT22;14844;51.302;6.354;2023-07-13T15:55:30;20.80;94.00
27376;DHT22;14844;51.302;6.354;2023-07-13T15:57:56;21.00;94.70
27376;DHT22;14844;51.302;6.354;2023-07-13T16:00:23;21.00;93.70
27376;DHT22;14844;51.302;6.354;2023-07-13T16:02:49;20.80;92.70
27376;DHT22;14844;51.302;6.354;2023-07-13T16:05:15;20.90;92.50
27376;DHT22;14844;51.302;6.354;2023-07-13T16:07:44;21.30;91.80
27376;DHT22;14844;51.302;6.354;2023-07-13T16:10:15;21.70;91.30